createdAt,value
2017-10-11T00:00:39.502Z,11.68
2017-10-11T00:01:49.653Z,11.62
2017-10-11T00:02:59.803Z,11.64
2017-10-11T00:04:10.291Z,11.68
2017-10-11T00:05:20.749Z,11.66
2017-10-11T00:06:31.278Z,11.64
2017-10-11T00:07:41.857Z,11.74
2017-10-11T00:08:52.480Z,11.66
2017-10-11T00:10:02.974Z,11.69
2017-10-11T00:11:13.144Z,11.66
2017-10-11T00:12:24.607Z,11.64
2017-10-11T00:13:35.096Z,11.69
2017-10-11T00:14:45.566Z,11.76
2017-10-11T00:15:56.076Z,11.58
2017-10-11T00:17:06.564Z,11.74
2017-10-11T00:18:17.052Z,11.59
2017-10-11T00:19:27.517Z,11.69
2017-10-11T00:20:37.988Z,11.71
2017-10-11T00:21:48.442Z,11.66
2017-10-11T00:22:58.897Z,11.72
2017-10-11T00:24:09.357Z,11.68
2017-10-11T00:25:19.842Z,11.69
2017-10-11T00:26:30.334Z,11.71
2017-10-11T00:27:40.844Z,11.71
2017-10-11T00:28:51.296Z,11.66
2017-10-11T00:30:01.783Z,11.69
2017-10-11T00:31:12.277Z,11.76
2017-10-11T00:32:22.758Z,11.74
2017-10-11T00:33:33.214Z,11.79
2017-10-11T00:34:43.373Z,11.74
2017-10-11T00:35:53.851Z,11.79
2017-10-11T00:37:04.307Z,11.71
2017-10-11T00:38:14.465Z,11.82
2017-10-11T00:39:24.933Z,11.72
2017-10-11T00:40:35.414Z,11.76
2017-10-11T00:41:45.941Z,11.76
2017-10-11T00:42:56.416Z,11.77
2017-10-11T00:44:06.895Z,11.8
2017-10-11T00:45:17.742Z,11.77
2017-10-11T00:46:28.307Z,11.86
2017-10-11T00:47:38.796Z,11.77
2017-10-11T00:48:49.329Z,11.8
2017-10-11T00:49:59.809Z,11.76
2017-10-11T00:51:10.369Z,11.8
2017-10-11T00:52:20.827Z,11.72
2017-10-11T00:53:31.319Z,11.79
2017-10-11T00:54:41.838Z,11.86
2017-10-11T00:55:51.976Z,11.83
2017-10-11T00:57:02.452Z,11.84
2017-10-11T00:58:12.985Z,11.94
2017-10-11T00:59:23.450Z,11.94
2017-10-11T01:00:33.974Z,11.8
2017-10-11T01:01:44.416Z,11.84
2017-10-11T01:02:54.881Z,11.87
2017-10-11T01:04:05.344Z,11.82
2017-10-11T01:05:15.508Z,11.82
2017-10-11T01:06:25.992Z,11.83
2017-10-11T01:07:36.467Z,11.89
2017-10-11T01:08:46.960Z,11.9
2017-10-11T01:09:57.443Z,11.87
2017-10-11T01:11:08.054Z,11.89
2017-10-11T01:12:18.631Z,11.83
2017-10-11T01:13:29.090Z,11.89
2017-10-11T01:14:39.587Z,11.86
2017-10-11T01:15:50.095Z,11.86
2017-10-11T01:17:00.579Z,11.84
2017-10-11T01:18:11.082Z,11.91
2017-10-11T01:19:21.576Z,11.86
2017-10-11T01:20:32.114Z,11.91
2017-10-11T01:21:42.741Z,11.89
2017-10-11T01:22:53.210Z,11.9
2017-10-11T01:24:03.688Z,11.9
2017-10-11T01:25:14.142Z,11.91
2017-10-11T01:26:24.632Z,11.9
2017-10-11T01:27:35.087Z,11.91
2017-10-11T01:28:45.567Z,11.91
2017-10-11T01:29:56.030Z,11.9
2017-10-11T01:31:06.747Z,11.95
2017-10-11T01:32:17.347Z,11.95
2017-10-11T01:33:27.789Z,11.98
2017-10-11T01:34:38.267Z,12.04
2017-10-11T01:35:48.349Z,12.04
2017-10-11T01:36:58.826Z,11.99
2017-10-11T01:38:09.348Z,11.95
2017-10-11T01:39:19.849Z,12.02
2017-10-11T01:40:30.343Z,12.07
2017-10-11T01:41:40.805Z,12.07
2017-10-11T01:42:51.374Z,12.07
2017-10-11T01:44:01.837Z,12.11
2017-10-11T01:45:12.327Z,12.01
2017-10-11T01:46:22.463Z,12.04
2017-10-11T01:47:32.963Z,12.04
2017-10-11T01:48:43.697Z,12.04
2017-10-11T01:49:54.164Z,12.08
2017-10-11T01:51:04.332Z,12.04
2017-10-11T01:52:14.795Z,12.04
2017-10-11T01:53:25.409Z,12.04
2017-10-11T01:54:35.925Z,12.02
2017-10-11T01:55:46.396Z,12.02
2017-10-11T01:56:56.900Z,12.02
2017-10-11T01:58:07.362Z,12.01
2017-10-11T01:59:17.440Z,12.07
2017-10-11T02:00:27.948Z,12.07
2017-10-11T02:01:38.396Z,12.04
2017-10-11T02:02:48.866Z,12.07
2017-10-11T02:03:59.321Z,12.07
2017-10-11T02:05:09.969Z,12.07
2017-10-11T02:06:20.452Z,12.04
2017-10-11T02:07:30.923Z,12.07
2017-10-11T02:08:41.389Z,12.08
2017-10-11T02:09:51.863Z,11.9
2017-10-11T02:11:02.337Z,11.98
2017-10-11T02:12:12.830Z,12.04
2017-10-11T02:13:23.317Z,12.02
2017-10-11T02:14:33.810Z,12.05
2017-10-11T02:15:44.010Z,11.89
2017-10-11T02:16:54.505Z,11.89
2017-10-11T02:18:05.229Z,11.94
2017-10-11T02:19:15.763Z,11.91
2017-10-11T02:20:25.938Z,11.9
2017-10-11T02:21:36.412Z,11.89
2017-10-11T02:22:47.016Z,11.87
2017-10-11T02:23:57.523Z,11.89
2017-10-11T02:25:08.089Z,11.86
2017-10-11T02:26:18.611Z,11.94
2017-10-11T02:27:29.072Z,11.84
2017-10-11T02:28:39.536Z,11.83
2017-10-11T02:29:50.025Z,11.76
2017-10-11T02:31:00.529Z,11.79
2017-10-11T02:32:11.014Z,11.79
2017-10-11T02:33:21.162Z,11.79
2017-10-11T02:34:31.654Z,11.77
2017-10-11T02:35:42.111Z,11.83
2017-10-11T02:36:52.579Z,11.8
2017-10-11T02:38:03.083Z,11.74
2017-10-11T02:39:13.573Z,11.74
2017-10-11T02:40:24.043Z,11.71
2017-10-11T02:41:34.545Z,11.62
2017-10-11T02:42:45.031Z,11.65
2017-10-11T02:43:55.541Z,11.71
2017-10-11T02:45:05.990Z,11.62
2017-10-11T02:46:16.448Z,11.71
2017-10-11T02:47:26.899Z,11.74
2017-10-11T02:48:37.418Z,11.69
2017-10-11T02:49:47.880Z,11.68
2017-10-11T02:50:58.388Z,11.65
2017-10-11T02:52:08.960Z,11.66
2017-10-11T02:53:19.450Z,11.74
2017-10-11T02:54:29.923Z,11.65
2017-10-11T02:55:40.443Z,11.71
2017-10-11T02:56:50.957Z,11.8
2017-10-11T02:58:01.663Z,11.72
2017-10-11T02:59:12.151Z,11.74
2017-10-11T03:00:22.617Z,11.71
2017-10-11T03:01:32.740Z,11.74
2017-10-11T03:02:43.195Z,11.79
2017-10-11T03:03:53.672Z,11.77
2017-10-11T03:05:04.166Z,11.76
2017-10-11T03:06:14.613Z,11.83
2017-10-11T03:07:25.146Z,11.74
2017-10-11T03:08:35.610Z,11.72
2017-10-11T03:09:46.067Z,11.74
2017-10-11T03:10:56.530Z,11.89
2017-10-11T03:12:07.086Z,11.84
2017-10-11T03:13:17.560Z,11.83
2017-10-11T03:14:28.052Z,11.86
2017-10-11T03:15:38.546Z,11.86
2017-10-11T03:16:49.973Z,11.86
2017-10-11T03:18:00.480Z,11.94
2017-10-11T03:19:11.185Z,11.95
2017-10-11T03:20:21.652Z,11.87
2017-10-11T03:21:32.134Z,11.84
2017-10-11T03:22:42.580Z,11.9
2017-10-11T03:23:53.054Z,11.87
2017-10-11T03:25:03.178Z,11.9
2017-10-11T03:26:13.043Z,11.89
2017-10-11T03:27:23.511Z,11.87
2017-10-11T03:28:33.979Z,11.87
2017-10-11T03:29:44.479Z,11.94
2017-10-11T03:30:54.959Z,11.95
2017-10-11T03:32:05.447Z,11.9
2017-10-11T03:33:16.913Z,11.89
2017-10-11T03:34:27.381Z,11.89
2017-10-11T03:35:37.970Z,11.89
2017-10-11T03:36:48.510Z,11.9
2017-10-11T03:37:58.960Z,11.89
2017-10-11T03:39:09.430Z,11.87
2017-10-11T03:40:19.916Z,11.89
2017-10-11T03:41:30.378Z,11.84
2017-10-11T03:42:40.881Z,11.83
2017-10-11T03:43:51.471Z,11.94
2017-10-11T03:45:01.935Z,11.91
2017-10-11T03:46:12.396Z,11.89
2017-10-11T03:47:22.861Z,11.84
2017-10-11T03:48:33.554Z,11.84
2017-10-11T03:49:44.044Z,11.87
2017-10-11T03:50:54.507Z,11.91
2017-10-11T03:52:05.010Z,11.9
2017-10-11T03:53:15.483Z,11.89
2017-10-11T03:54:25.638Z,11.89
2017-10-11T03:55:36.152Z,11.87
2017-10-11T03:56:46.632Z,11.87
2017-10-11T03:57:57.382Z,11.9
2017-10-11T03:59:07.902Z,11.89
2017-10-11T04:00:18.406Z,11.86
2017-10-11T04:01:29.106Z,11.89
2017-10-11T04:02:39.590Z,11.91
2017-10-11T04:03:50.060Z,11.95
2017-10-11T04:05:00.680Z,12.05
2017-10-11T04:06:11.136Z,11.99
2017-10-11T04:07:21.650Z,12.02
2017-10-11T04:08:32.128Z,11.91
2017-10-11T04:09:42.692Z,11.98
2017-10-11T04:10:53.170Z,11.97
2017-10-11T04:12:03.681Z,11.97
2017-10-11T04:13:14.142Z,12.07
2017-10-11T04:14:24.613Z,12.04
2017-10-11T04:15:35.319Z,12.07
2017-10-11T04:16:45.797Z,12.05
2017-10-11T04:17:56.037Z,12.07
2017-10-11T04:19:06.188Z,12.07
2017-10-11T04:20:16.656Z,12.05
2017-10-11T04:21:27.132Z,12.11
2017-10-11T04:22:37.604Z,11.91
2017-10-11T04:23:47.859Z,12.02
2017-10-11T04:24:58.044Z,12.01
2017-10-11T04:26:08.203Z,12.04
2017-10-11T04:27:18.269Z,12.04
2017-10-11T04:28:28.734Z,12.13
2017-10-11T04:29:39.130Z,12.08
2017-10-11T04:30:49.608Z,12.09
2017-10-11T04:32:00.066Z,12.05
2017-10-11T04:33:10.534Z,12.08
2017-10-11T04:34:20.718Z,12.07
2017-10-11T04:35:31.199Z,12.07
2017-10-11T04:36:41.645Z,12.07
2017-10-11T04:37:52.168Z,12.04
2017-10-11T04:39:02.628Z,12.08
2017-10-11T04:40:13.127Z,12.05
2017-10-11T04:41:23.592Z,12.04
2017-10-11T04:42:34.062Z,11.99
2017-10-11T04:43:44.544Z,12.04
2017-10-11T04:44:55.049Z,12.04
2017-10-11T04:46:05.622Z,12.04
2017-10-11T04:47:15.786Z,12.07
2017-10-11T04:48:26.419Z,12.09
2017-10-11T04:49:36.952Z,12.04
2017-10-11T04:50:47.402Z,12.05
2017-10-11T04:51:57.939Z,12.02
2017-10-11T04:53:08.404Z,12.04
2017-10-11T04:54:18.929Z,12.05
2017-10-11T04:55:29.402Z,12.01
2017-10-11T04:56:39.905Z,12.04
2017-10-11T04:57:50.400Z,11.94
2017-10-11T04:59:00.869Z,12.02
2017-10-11T05:00:11.096Z,11.98
2017-10-11T05:01:21.568Z,11.95
2017-10-11T05:02:32.023Z,11.95
2017-10-11T05:03:42.498Z,11.95
2017-10-11T05:04:52.986Z,11.97
2017-10-11T05:06:03.544Z,11.99
2017-10-11T05:07:13.797Z,11.95
2017-10-11T05:08:24.275Z,11.94
2017-10-11T05:09:34.814Z,11.97
2017-10-11T05:10:45.280Z,11.98
2017-10-11T05:11:54.654Z,11.91
2017-10-11T05:13:05.266Z,11.95
2017-10-11T05:14:15.419Z,12.01
2017-10-11T05:15:25.575Z,11.97
2017-10-11T05:16:36.024Z,12.05
2017-10-11T05:17:46.575Z,12.01
2017-10-11T05:18:57.026Z,11.98
2017-10-11T05:20:07.492Z,12.04
2017-10-11T05:21:17.974Z,11.99
2017-10-11T05:22:28.522Z,12.04
2017-10-11T05:23:39.002Z,12.08
2017-10-11T05:24:49.464Z,12.07
2017-10-11T05:25:59.932Z,12.07
2017-10-11T05:27:10.418Z,11.98
2017-10-11T05:28:20.901Z,12.09
2017-10-11T05:29:31.373Z,12.08
2017-10-11T05:30:41.860Z,12.04
2017-10-11T05:31:51.896Z,12.08
2017-10-11T05:33:02.373Z,12.01
2017-10-11T05:34:12.824Z,12.08
2017-10-11T05:35:23.308Z,12.05
2017-10-11T05:36:33.766Z,12.08
2017-10-11T05:37:44.437Z,12.16
2017-10-11T05:38:54.577Z,12.11
2017-10-11T05:40:05.059Z,12.05
2017-10-11T05:41:15.547Z,12.04
2017-10-11T05:42:26.020Z,12.09
2017-10-11T05:43:36.566Z,12.09
2017-10-11T05:44:47.063Z,12.05
2017-10-11T05:45:57.537Z,12.07
2017-10-11T05:47:08.133Z,12.07
2017-10-11T05:48:18.595Z,12.04
2017-10-11T05:49:29.136Z,12.07
2017-10-11T05:50:39.598Z,12.02
2017-10-11T05:51:50.074Z,12.08
2017-10-11T05:53:00.554Z,12.02
2017-10-11T05:54:11.036Z,12.02
2017-10-11T05:55:21.504Z,12.04
2017-10-11T05:56:32.100Z,12.11
2017-10-11T05:57:42.691Z,12.02
2017-10-11T05:58:53.194Z,11.99
2017-10-11T06:00:03.697Z,11.98
2017-10-11T06:01:13.861Z,12.05
2017-10-11T06:02:24.324Z,12.04
2017-10-11T06:03:34.983Z,12.11
2017-10-11T06:04:45.129Z,12.05
2017-10-11T06:05:55.636Z,12.11
2017-10-11T06:07:06.114Z,12.13
2017-10-11T06:08:16.596Z,12.08
2017-10-11T06:09:27.038Z,12.08
2017-10-11T06:10:37.499Z,12.05
2017-10-11T06:11:47.956Z,12.09
2017-10-11T06:12:58.462Z,12.13
2017-10-11T06:14:09.032Z,12.08
2017-10-11T06:15:19.504Z,12.04
2017-10-11T06:16:29.953Z,12.11
2017-10-11T06:17:40.420Z,12.08
2017-10-11T06:18:50.901Z,12.07
2017-10-11T06:20:01.349Z,12.09
2017-10-11T06:21:11.808Z,12.16
2017-10-11T06:22:22.540Z,12.04
2017-10-11T06:23:33.042Z,12.13
2017-10-11T06:24:43.529Z,12.09
2017-10-11T06:25:53.992Z,12.08
2017-10-11T06:27:04.462Z,12.07
2017-10-11T06:28:14.937Z,12.08
2017-10-11T06:29:25.404Z,12.07
2017-10-11T06:30:35.885Z,12.05
2017-10-11T06:31:46.416Z,12.13
2017-10-11T06:32:56.550Z,12.07
2017-10-11T06:34:07.055Z,12.08
2017-10-11T06:35:17.551Z,12.05
2017-10-11T06:36:29.031Z,12.08
2017-10-11T06:37:39.203Z,12.15
2017-10-11T06:38:49.694Z,12.16
2017-10-11T06:40:00.145Z,12.2
2017-10-11T06:41:10.598Z,12.22
2017-10-11T06:42:21.161Z,12.26
2017-10-11T06:43:31.669Z,12.19
2017-10-11T06:44:42.143Z,12.29
2017-10-11T06:45:52.645Z,12.35
2017-10-11T06:47:02.685Z,12.37
2017-10-11T06:48:13.233Z,12.38
2017-10-11T06:49:23.711Z,12.52
2017-10-11T06:50:34.182Z,12.47
2017-10-11T06:51:44.654Z,12.52
2017-10-11T06:52:55.124Z,12.57
2017-10-11T06:54:05.605Z,12.59
2017-10-11T06:55:16.085Z,12.55
2017-10-11T06:56:26.533Z,12.6
2017-10-11T06:57:37.151Z,12.59
2017-10-11T06:58:47.830Z,12.6
2017-10-11T06:59:57.591Z,12.68
2017-10-11T07:01:08.067Z,12.62
2017-10-11T07:02:18.580Z,12.75
2017-10-11T07:03:29.051Z,12.74
2017-10-11T07:04:39.527Z,12.82
2017-10-11T07:05:50.001Z,12.84
2017-10-11T07:07:00.507Z,12.85
2017-10-11T07:08:11.116Z,12.88
2017-10-11T07:09:21.606Z,12.8
2017-10-11T07:10:32.072Z,12.8
2017-10-11T07:11:42.580Z,12.88
2017-10-11T07:12:53.048Z,12.8
2017-10-11T07:14:03.142Z,12.82
2017-10-11T07:15:13.733Z,12.85
2017-10-11T07:16:24.214Z,12.84
2017-10-11T07:17:34.765Z,12.81
2017-10-11T07:18:45.366Z,12.81
2017-10-11T07:19:55.823Z,12.77
2017-10-11T07:21:06.312Z,12.84
2017-10-11T07:22:16.791Z,12.84
2017-10-11T07:23:27.258Z,12.81
2017-10-11T07:24:37.392Z,12.75
2017-10-11T07:25:47.858Z,12.8
2017-10-11T07:26:58.333Z,12.75
2017-10-11T07:28:08.816Z,12.75
2017-10-11T07:29:19.282Z,12.7
2017-10-11T07:30:29.742Z,12.68
2017-10-11T07:31:39.570Z,12.63
2017-10-11T07:32:49.708Z,12.77
2017-10-11T07:34:00.164Z,12.6
2017-10-11T07:35:10.621Z,12.57
2017-10-11T07:36:21.312Z,12.56
2017-10-11T07:37:31.420Z,12.57
2017-10-11T07:38:41.900Z,12.52
2017-10-11T07:39:52.389Z,12.63
2017-10-11T07:41:02.526Z,12.59
2017-10-11T07:42:12.997Z,12.62
2017-10-11T07:43:23.475Z,12.6
2017-10-11T07:44:33.947Z,12.59
2017-10-11T07:45:44.488Z,12.57
2017-10-11T07:46:54.652Z,12.57
2017-10-11T07:48:05.150Z,12.57
2017-10-11T07:49:15.622Z,12.55
2017-10-11T07:50:25.498Z,12.55
2017-10-11T07:51:36.022Z,12.5
2017-10-11T07:52:46.498Z,12.5
2017-10-11T07:53:57.051Z,12.59
2017-10-11T07:55:07.564Z,12.55
2017-10-11T07:56:17.629Z,12.55
2017-10-11T07:57:28.195Z,12.53
2017-10-11T07:58:38.706Z,12.55
2017-10-11T07:59:49.188Z,12.5
2017-10-11T08:00:59.606Z,12.56
2017-10-11T08:02:09.794Z,12.55
2017-10-11T08:03:20.353Z,12.53
2017-10-11T08:04:30.741Z,12.48
2017-10-11T08:05:41.492Z,12.37
2017-10-11T08:06:51.946Z,12.38
2017-10-11T08:08:02.431Z,12.41
2017-10-11T08:09:12.948Z,12.42
2017-10-11T08:10:23.410Z,12.39
2017-10-11T08:11:33.874Z,12.41
2017-10-11T08:12:44.361Z,12.39
2017-10-11T08:13:54.872Z,12.32
2017-10-11T08:15:04.962Z,12.32
2017-10-11T08:16:15.498Z,12.41
2017-10-11T08:17:25.981Z,12.37
2017-10-11T08:18:36.159Z,12.44
2017-10-11T08:19:46.651Z,12.42
2017-10-11T08:20:57.113Z,12.38
2017-10-11T08:22:07.614Z,12.44
2017-10-11T08:23:18.088Z,12.38
2017-10-11T08:24:28.562Z,12.41
2017-10-11T08:25:39.209Z,12.38
2017-10-11T08:26:49.682Z,12.42
2017-10-11T08:27:59.833Z,12.38
2017-10-11T08:29:10.294Z,12.34
2017-10-11T08:30:20.754Z,12.42
2017-10-11T08:31:30.976Z,12.48
2017-10-11T08:32:41.530Z,12.45
2017-10-11T08:33:52.014Z,12.39
2017-10-11T08:35:02.498Z,12.37
2017-10-11T08:36:13.092Z,12.47
2017-10-11T08:37:23.345Z,12.39
2017-10-11T08:38:33.835Z,12.42
2017-10-11T08:39:44.298Z,12.38
2017-10-11T08:40:54.793Z,12.38
2017-10-11T08:42:05.285Z,12.38
2017-10-11T08:43:15.746Z,12.39
2017-10-11T08:44:26.216Z,12.52
2017-10-11T08:45:36.687Z,12.52
2017-10-11T08:46:47.271Z,12.55
2017-10-11T08:47:57.864Z,12.66
2017-10-11T08:49:08.386Z,12.6
2017-10-11T08:50:18.935Z,12.64
2017-10-11T08:51:29.172Z,12.7
2017-10-11T08:52:39.733Z,12.75
2017-10-11T08:53:50.202Z,12.8
2017-10-11T08:55:00.782Z,12.85
2017-10-11T08:56:11.254Z,12.84
2017-10-11T08:57:21.830Z,12.82
2017-10-11T08:58:32.311Z,12.81
2017-10-11T08:59:42.795Z,12.82
2017-10-11T09:00:52.963Z,12.97
2017-10-11T09:02:03.414Z,12.97
2017-10-11T09:03:13.877Z,13
2017-10-11T09:04:24.501Z,12.97
2017-10-11T09:05:34.533Z,13.11
2017-10-11T09:06:45.052Z,13.06
2017-10-11T09:07:55.568Z,13.06
2017-10-11T09:09:07.007Z,13.09
2017-10-11T09:10:17.490Z,13.18
2017-10-11T09:11:27.987Z,13.23
2017-10-11T09:12:38.479Z,13.26
2017-10-11T09:13:49.107Z,13.11
2017-10-11T09:14:59.608Z,13.31
2017-10-11T09:16:10.166Z,13.38
2017-10-11T09:17:20.303Z,13.33
2017-10-11T09:18:30.778Z,13.41
2017-10-11T09:19:41.320Z,13.4
2017-10-11T09:20:51.896Z,13.45
2017-10-11T09:22:02.400Z,13.44
2017-10-11T09:23:12.907Z,13.52
2017-10-11T09:24:23.397Z,13.59
2017-10-11T09:25:33.894Z,13.64
2017-10-11T09:26:44.358Z,13.67
2017-10-11T09:27:54.884Z,13.64
2017-10-11T09:29:05.087Z,13.66
2017-10-11T09:30:15.579Z,13.56
2017-10-11T09:31:26.085Z,13.61
2017-10-11T09:32:36.738Z,13.55
2017-10-11T09:33:47.191Z,13.58
2017-10-11T09:34:56.926Z,13.56
2017-10-11T09:36:07.402Z,13.69
2017-10-11T09:37:17.898Z,13.58
2017-10-11T09:38:28.382Z,13.56
2017-10-11T09:39:39.038Z,13.54
2017-10-11T09:40:49.546Z,13.59
2017-10-11T09:42:00.021Z,13.59
2017-10-11T09:43:10.569Z,13.61
2017-10-11T09:44:21.029Z,13.64
2017-10-11T09:45:31.558Z,13.55
2017-10-11T09:46:41.710Z,13.66
2017-10-11T09:47:52.214Z,13.59
2017-10-11T09:49:02.364Z,13.59
2017-10-11T09:50:12.922Z,13.56
2017-10-11T09:51:23.132Z,13.64
2017-10-11T09:52:33.687Z,13.64
2017-10-11T09:53:44.197Z,13.56
2017-10-11T09:54:54.708Z,13.59
2017-10-11T09:56:05.191Z,13.55
2017-10-11T09:57:15.794Z,13.56
2017-10-11T09:58:26.275Z,13.55
2017-10-11T09:59:36.816Z,13.54
2017-10-11T10:00:47.305Z,13.55
2017-10-11T10:01:57.575Z,13.59
2017-10-11T10:03:08.059Z,13.54
2017-10-11T10:04:18.529Z,13.61
2017-10-11T10:05:29.002Z,13.51
2017-10-11T10:06:39.526Z,13.55
2017-10-11T10:07:49.664Z,13.55
2017-10-11T10:09:00.136Z,13.52
2017-10-11T10:10:10.633Z,13.58
2017-10-11T10:11:21.102Z,13.54
2017-10-11T10:12:31.586Z,13.61
2017-10-11T10:13:42.266Z,13.58
2017-10-11T10:14:52.750Z,13.63
2017-10-11T10:16:03.322Z,13.55
2017-10-11T10:17:13.922Z,13.69
2017-10-11T10:18:24.417Z,13.7
2017-10-11T10:19:34.873Z,13.76
2017-10-11T10:20:45.412Z,13.81
2017-10-11T10:21:55.887Z,13.85
2017-10-11T10:23:06.359Z,13.96
2017-10-11T10:24:16.865Z,13.99
2017-10-11T10:25:27.393Z,13.96
2017-10-11T10:26:38.134Z,14.11
2017-10-11T10:27:48.230Z,14.1
2017-10-11T10:28:58.680Z,14.21
2017-10-11T10:30:09.220Z,14.26
2017-10-11T10:31:19.788Z,14.34
2017-10-11T10:32:30.249Z,14.37
2017-10-11T10:33:40.725Z,14.5
2017-10-11T10:37:23.617Z,14.54
2017-10-11T10:38:34.351Z,14.45
2017-10-11T10:39:44.840Z,14.39
2017-10-11T10:40:56.431Z,14.37
2017-10-11T10:42:06.998Z,14.34
2017-10-11T10:43:17.520Z,14.36
2017-10-11T10:44:28.195Z,14.36
2017-10-11T10:45:42.306Z,14.21
2017-10-11T10:46:52.859Z,14.39
2017-10-11T10:48:03.335Z,14.26
2017-10-11T10:49:13.854Z,14.24
2017-10-11T10:50:24.429Z,14.24
2017-10-11T10:51:34.915Z,14.29
2017-10-11T10:52:44.686Z,14.24
2017-10-11T10:53:57.012Z,14.21
2017-10-11T10:56:25.901Z,14.25
2017-10-11T10:57:38.600Z,14.24
2017-10-11T10:58:49.116Z,14.28
2017-10-11T10:59:59.268Z,14.24
2017-10-11T11:01:09.768Z,14.28
2017-10-11T11:02:20.419Z,14.22
2017-10-11T11:03:30.911Z,14.25
2017-10-11T11:04:41.432Z,14.21
2017-10-11T11:05:51.626Z,14.29
2017-10-11T11:07:02.730Z,14.22
2017-10-11T11:08:13.188Z,14.26
2017-10-11T11:09:23.973Z,14.31
2017-10-11T11:10:34.521Z,14.26
2017-10-11T11:11:45.158Z,14.26
2017-10-11T11:12:55.637Z,14.26
2017-10-11T11:14:06.155Z,14.31
2017-10-11T11:15:16.817Z,14.26
2017-10-11T11:16:27.539Z,14.26
2017-10-11T11:17:38.058Z,14.37
2017-10-11T11:18:48.605Z,14.4
2017-10-11T11:19:59.118Z,14.36
2017-10-11T11:21:09.651Z,14.36
2017-10-11T11:22:20.136Z,14.37
2017-10-11T11:23:30.636Z,14.4
2017-10-11T11:24:42.112Z,14.37
2017-10-11T11:25:52.285Z,14.52
2017-10-11T11:27:02.767Z,14.52
2017-10-11T11:28:13.218Z,14.6
2017-10-11T11:29:23.838Z,14.54
2017-10-11T11:30:34.336Z,14.62
2017-10-11T11:31:44.393Z,14.56
2017-10-11T11:32:55.013Z,14.63
2017-10-11T11:34:05.511Z,14.66
2017-10-11T11:35:15.979Z,14.59
2017-10-11T11:36:26.604Z,14.6
2017-10-11T11:37:37.098Z,14.65
2017-10-11T11:38:47.605Z,14.69
2017-10-11T11:39:57.792Z,14.5
2017-10-11T11:41:07.956Z,14.52
2017-10-11T11:42:19.063Z,14.52
2017-10-11T11:43:29.603Z,14.54
2017-10-11T11:44:40.113Z,14.54
2017-10-11T11:45:50.630Z,14.56
2017-10-11T11:47:01.096Z,14.62
2017-10-11T11:48:11.714Z,14.65
2017-10-11T11:49:22.270Z,14.66
2017-10-11T11:50:32.793Z,14.65
2017-10-11T11:51:43.417Z,14.8
2017-10-11T11:52:54.136Z,14.84
2017-10-11T11:54:04.748Z,15.03
2017-10-11T11:55:15.248Z,15.06
2017-10-11T11:56:25.767Z,15.17
2017-10-11T11:57:36.238Z,15.27
2017-10-11T11:58:46.708Z,15.27
2017-10-11T11:59:57.202Z,15.35
2017-10-11T12:01:07.952Z,15.43
2017-10-11T12:02:18.450Z,15.53
2017-10-11T12:03:28.604Z,15.55
2017-10-11T12:04:39.085Z,15.61
2017-10-11T12:05:49.575Z,15.7
2017-10-11T12:07:00.060Z,15.69
2017-10-11T12:08:10.551Z,15.7
2017-10-11T12:09:20.694Z,15.84
2017-10-11T12:10:31.182Z,15.8
2017-10-11T12:11:41.353Z,15.99
2017-10-11T12:12:51.868Z,16.01
2017-10-11T12:14:02.353Z,15.94
2017-10-11T12:15:12.829Z,15.98
2017-10-11T12:16:23.295Z,15.98
2017-10-11T12:17:33.443Z,15.88
2017-10-11T12:18:43.928Z,15.88
2017-10-11T12:19:54.464Z,15.75
2017-10-11T12:21:04.943Z,15.69
2017-10-11T12:22:15.456Z,15.64
2017-10-11T12:23:25.960Z,15.6
2017-10-11T12:24:36.416Z,15.64
2017-10-11T12:25:46.896Z,15.57
2017-10-11T12:26:57.088Z,15.64
2017-10-11T12:28:07.624Z,15.61
2017-10-11T12:29:18.135Z,15.61
2017-10-11T12:30:28.592Z,15.57
2017-10-11T12:31:39.101Z,15.58
2017-10-11T12:32:49.571Z,15.57
2017-10-11T12:34:00.013Z,15.46
2017-10-11T12:35:10.581Z,15.4
2017-10-11T12:36:21.053Z,15.43
2017-10-11T12:37:31.560Z,15.43
2017-10-11T12:38:42.037Z,15.42
2017-10-11T12:39:52.184Z,15.42
2017-10-11T12:41:02.860Z,15.38
2017-10-11T12:42:12.988Z,15.33
2017-10-11T12:43:23.143Z,15.29
2017-10-11T12:44:33.687Z,15.21
2017-10-11T12:45:44.250Z,15.24
2017-10-11T12:46:55.062Z,15.32
2017-10-11T12:48:05.537Z,15.23
2017-10-11T12:49:16.043Z,15.2
2017-10-11T12:50:26.190Z,15.14
2017-10-11T12:51:36.739Z,15.09
2017-10-11T12:52:47.224Z,15.08
2017-10-11T12:53:57.844Z,14.96
2017-10-11T12:55:08.331Z,14.95
2017-10-11T12:56:18.835Z,14.9
2017-10-11T12:57:29.333Z,14.8
2017-10-11T12:58:39.862Z,14.84
2017-10-11T12:59:50.402Z,14.75
2017-10-11T13:01:00.919Z,14.75
2017-10-11T13:02:11.407Z,14.74
2017-10-11T13:03:21.906Z,14.66
2017-10-11T13:04:32.609Z,14.62
2017-10-11T13:05:43.080Z,14.65
2017-10-11T13:06:53.552Z,14.62
2017-10-11T13:08:04.034Z,14.66
2017-10-11T13:09:14.535Z,14.66
2017-10-11T13:10:25.054Z,14.66
2017-10-11T13:11:35.558Z,14.62
2017-10-11T13:12:46.098Z,14.67
2017-10-11T13:13:56.566Z,14.63
2017-10-11T13:15:07.039Z,14.59
2017-10-11T13:16:17.733Z,14.56
2017-10-11T13:17:27.852Z,14.58
2017-10-11T13:18:38.360Z,14.59
2017-10-11T13:19:48.882Z,14.6
2017-10-11T13:20:59.396Z,14.52
2017-10-11T13:22:09.768Z,14.52
2017-10-11T13:23:20.908Z,14.58
2017-10-11T13:24:31.048Z,14.58
2017-10-11T13:25:41.251Z,14.58
2017-10-11T13:26:51.747Z,14.52
2017-10-11T13:28:02.247Z,14.56
2017-10-11T13:29:12.398Z,14.47
2017-10-11T13:30:23.008Z,14.43
2017-10-11T13:31:33.459Z,14.51
2017-10-11T13:32:43.965Z,14.5
2017-10-11T13:33:54.476Z,14.39
2017-10-11T13:35:04.991Z,14.37
2017-10-11T13:36:15.656Z,14.29
2017-10-11T13:37:26.173Z,14.34
2017-10-11T13:38:36.636Z,14.26
2017-10-11T13:39:47.177Z,14.25
2017-10-11T13:40:57.685Z,14.22
2017-10-11T13:42:08.154Z,14.26
2017-10-11T13:43:18.532Z,14.29
2017-10-11T13:44:29.012Z,14.26
2017-10-11T13:45:39.053Z,14.25
2017-10-11T13:46:49.584Z,14.21
2017-10-11T13:48:00.094Z,14.21
2017-10-11T13:49:10.590Z,14.21
2017-10-11T13:50:21.110Z,14.21
2017-10-11T13:51:31.590Z,14.22
2017-10-11T13:52:41.818Z,14.21
2017-10-11T13:53:52.368Z,14.18
2017-10-11T13:55:02.971Z,14.21
2017-10-11T13:56:13.480Z,14.16
2017-10-11T13:57:23.982Z,14.14
2017-10-11T13:58:34.168Z,14.13
2017-10-11T13:59:44.688Z,14.14
2017-10-11T14:00:55.441Z,14.07
2017-10-11T14:02:05.920Z,14.14
2017-10-11T14:03:16.442Z,14.09
2017-10-11T14:04:26.928Z,14.07
2017-10-11T14:05:37.389Z,14.11
2017-10-11T14:06:47.588Z,14.13
2017-10-11T14:07:58.255Z,14.09
2017-10-11T14:09:08.738Z,14.07
2017-10-11T14:10:19.238Z,14.11
2017-10-11T14:11:29.739Z,14.11
2017-10-11T14:12:40.526Z,14.1
2017-10-11T14:13:50.754Z,14.09
2017-10-11T14:15:01.267Z,14.18
2017-10-11T14:16:11.791Z,14.13
2017-10-11T14:17:22.239Z,14.16
2017-10-11T14:18:32.726Z,14.09
2017-10-11T14:19:43.230Z,14.11
2017-10-11T14:20:53.794Z,14.07
2017-10-11T14:22:03.995Z,14.04
2017-10-11T14:23:14.155Z,13.99
2017-10-11T14:24:24.746Z,14.07
2017-10-11T14:25:34.928Z,14.03
2017-10-11T14:26:45.427Z,14.03
2017-10-11T14:27:56.032Z,14.1
2017-10-11T14:29:06.589Z,14.11
2017-10-11T14:30:17.053Z,14.09
2017-10-11T14:31:26.776Z,14.07
2017-10-11T14:32:37.305Z,14.13
2017-10-11T14:33:47.773Z,14.04
2017-10-11T14:34:58.262Z,14.06
2017-10-11T14:36:08.695Z,14.03
2017-10-11T14:37:18.747Z,14
2017-10-11T14:38:29.207Z,13.99
2017-10-11T14:39:39.461Z,14.07
2017-10-11T14:40:49.947Z,14.02
2017-10-11T14:42:00.425Z,14
2017-10-11T14:43:10.640Z,13.96
2017-10-11T14:44:21.165Z,13.99
2017-10-11T14:45:31.613Z,13.99
2017-10-11T14:46:42.109Z,13.96
2017-10-11T14:47:52.616Z,14.06
2017-10-11T14:49:03.083Z,13.96
2017-10-11T14:50:13.546Z,14.03
2017-10-11T14:51:24.191Z,14
2017-10-11T14:52:34.665Z,14.07
2017-10-11T14:53:45.140Z,14.03
2017-10-11T14:54:55.636Z,14
2017-10-11T14:56:06.138Z,14.02
2017-10-11T14:57:16.626Z,14.03
2017-10-11T14:58:27.326Z,14.02
2017-10-11T14:59:37.419Z,14
2017-10-11T15:00:47.939Z,13.94
2017-10-11T15:01:58.427Z,13.91
2017-10-11T15:03:09.026Z,13.89
2017-10-11T15:04:19.779Z,13.89
2017-10-11T15:05:30.306Z,13.96
2017-10-11T15:06:40.786Z,13.82
2017-10-11T15:07:51.377Z,13.84
2017-10-11T15:09:02.077Z,13.85
2017-10-11T15:10:12.547Z,13.82
2017-10-11T15:11:23.025Z,13.86
2017-10-11T15:12:33.493Z,13.79
2017-10-11T15:13:44.085Z,13.88
2017-10-11T15:14:54.558Z,13.81